Terminal Aerodrome Forecast
Issued by NWS Charleston, WV

Current Version | Previous Version | Text Only | Print | Product List | Glossary On
Versions: 1 2 3 4 5 6 7 8 9 10 11 12 13 14 15 16 17 18 19 20 21 22 23 24 25 26
000
FTUS41 KRLX 012300
TAFCRW
TAF
KCRW 012322Z 0200/0224 16010G17KT 6SM -RA BR OVC040
     FM020400 20010G17KT 5SM -RA BR OVC025
     FM020700 24009G15KT 3SM -RA BR OVC015
     FM021400 27012G20KT 2SM -SN BR BKN008 OVC015
     FM021700 28014G24KT 5SM -SN BR OVC010
     FM021900 29015G26KT 6SM BR OVC020=

USA.gov is the U.S. government's official web portal to all federal, state and local government web resources and services.